sensor_id;sensor_type;location;lat;lon;timestamp;P1;durP1;ratioP1;P2;durP2;ratioP2
69319;SDS011;56467;53.502;49.248;2023-08-06T00:02:20;9.40;;;5.90;;
69319;SDS011;56467;53.502;49.248;2023-08-06T00:04:46;9.88;;;5.70;;
69319;SDS011;56467;53.502;49.248;2023-08-06T00:07:12;10.45;;;6.05;;
69319;SDS011;56467;53.502;49.248;2023-08-06T00:09:37;10.93;;;6.53;;
69319;SDS011;56467;53.502;49.248;2023-08-06T00:12:03;9.93;;;6.15;;
69319;SDS011;56467;53.502;49.248;2023-08-06T00:14:29;11.35;;;6.20;;
69319;SDS011;56467;53.502;49.248;2023-08-06T00:16:55;11.02;;;6.10;;
69319;SDS011;56467;53.502;49.248;2023-08-06T00:19:21;11.30;;;6.38;;
69319;SDS011;56467;53.502;49.248;2023-08-06T00:21:47;12.23;;;6.72;;
69319;SDS011;56467;53.502;49.248;2023-08-06T00:24:13;12.18;;;6.45;;
69319;SDS011;56467;53.502;49.248;2023-08-06T00:26:39;11.52;;;6.40;;
69319;SDS011;56467;53.502;49.248;2023-08-06T00:29:04;10.65;;;6.35;;
69319;SDS011;56467;53.502;49.248;2023-08-06T00:31:30;10.32;;;6.32;;
69319;SDS011;56467;53.502;49.248;2023-08-06T00:33:55;12.30;;;6.95;;
69319;SDS011;56467;53.502;49.248;2023-08-06T00:36:21;10.45;;;6.40;;
69319;SDS011;56467;53.502;49.248;2023-08-06T00:38:47;12.02;;;6.60;;
69319;SDS011;56467;53.502;49.248;2023-08-06T00:41:12;10.20;;;6.57;;
69319;SDS011;56467;53.502;49.248;2023-08-06T00:43:38;13.07;;;6.75;;
69319;SDS011;56467;53.502;49.248;2023-08-06T00:46:04;10.82;;;6.63;;
69319;SDS011;56467;53.502;49.248;2023-08-06T00:48:30;12.20;;;6.95;;
69319;SDS011;56467;53.502;49.248;2023-08-06T00:50:56;12.52;;;6.72;;
69319;SDS011;56467;53.502;49.248;2023-08-06T00:53:23;10.90;;;6.93;;
69319;SDS011;56467;53.502;49.248;2023-08-06T00:55:49;10.93;;;6.13;;
69319;SDS011;56467;53.502;49.248;2023-08-06T00:58:15;12.15;;;6.32;;
69319;SDS011;56467;53.502;49.248;2023-08-06T01:00:41;12.48;;;6.60;;
69319;SDS011;56467;53.502;49.248;2023-08-06T01:03:07;11.40;;;6.25;;
69319;SDS011;56467;53.502;49.248;2023-08-06T01:05:33;10.70;;;6.43;;
69319;SDS011;56467;53.502;49.248;2023-08-06T01:16:15;9.10;;;6.25;;
69319;SDS011;56467;53.502;49.248;2023-08-06T01:18:42;9.90;;;6.13;;
69319;SDS011;56467;53.502;49.248;2023-08-06T01:21:12;10.00;;;6.15;;
69319;SDS011;56467;53.502;49.248;2023-08-06T01:23:38;11.35;;;6.13;;
69319;SDS011;56467;53.502;49.248;2023-08-06T01:28:55;9.25;;;5.90;;
69319;SDS011;56467;53.502;49.248;2023-08-06T01:31:34;9.70;;;6.10;;
69319;SDS011;56467;53.502;49.248;2023-08-06T01:34:03;10.55;;;6.20;;
69319;SDS011;56467;53.502;49.248;2023-08-06T01:36:32;11.10;;;6.30;;
69319;SDS011;56467;53.502;49.248;2023-08-06T01:38:58;9.45;;;5.80;;
69319;SDS011;56467;53.502;49.248;2023-08-06T01:41:24;9.55;;;5.85;;
69319;SDS011;56467;53.502;49.248;2023-08-06T01:43:50;9.93;;;5.80;;
69319;SDS011;56467;53.502;49.248;2023-08-06T01:46:16;10.38;;;6.00;;
69319;SDS011;56467;53.502;49.248;2023-08-06T01:48:41;8.93;;;5.68;;
69319;SDS011;56467;53.502;49.248;2023-08-06T01:51:07;9.65;;;6.28;;
69319;SDS011;56467;53.502;49.248;2023-08-06T01:53:33;9.43;;;5.78;;
69319;SDS011;56467;53.502;49.248;2023-08-06T01:55:59;11.73;;;5.93;;
69319;SDS011;56467;53.502;49.248;2023-08-06T01:58:25;8.75;;;5.43;;
69319;SDS011;56467;53.502;49.248;2023-08-06T02:00:50;9.32;;;5.78;;
69319;SDS011;56467;53.502;49.248;2023-08-06T02:03:16;7.75;;;5.30;;
69319;SDS011;56467;53.502;49.248;2023-08-06T02:05:42;8.77;;;5.40;;
69319;SDS011;56467;53.502;49.248;2023-08-06T02:08:07;8.68;;;5.57;;
69319;SDS011;56467;53.502;49.248;2023-08-06T02:10:33;8.75;;;5.53;;
69319;SDS011;56467;53.502;49.248;2023-08-06T02:12:59;9.20;;;5.85;;
69319;SDS011;56467;53.502;49.248;2023-08-06T02:15:25;8.18;;;5.40;;
69319;SDS011;56467;53.502;49.248;2023-08-06T02:17:50;9.48;;;5.85;;
69319;SDS011;56467;53.502;49.248;2023-08-06T02:20:16;8.98;;;5.50;;
69319;SDS011;56467;53.502;49.248;2023-08-06T02:22:42;8.15;;;4.93;;
69319;SDS011;56467;53.502;49.248;2023-08-06T02:25:07;8.02;;;5.40;;
69319;SDS011;56467;53.502;49.248;2023-08-06T02:27:33;8.15;;;5.40;;
69319;SDS011;56467;53.502;49.248;2023-08-06T02:29:59;8.38;;;5.30;;
69319;SDS011;56467;53.502;49.248;2023-08-06T02:32:24;8.63;;;5.72;;
69319;SDS011;56467;53.502;49.248;2023-08-06T02:34:50;8.82;;;5.35;;
69319;SDS011;56467;53.502;49.248;2023-08-06T02:37:16;6.85;;;4.78;;
69319;SDS011;56467;53.502;49.248;2023-08-06T02:39:41;9.13;;;5.05;;
69319;SDS011;56467;53.502;49.248;2023-08-06T02:42:08;8.35;;;5.10;;
69319;SDS011;56467;53.502;49.248;2023-08-06T02:44:34;8.65;;;5.22;;
69319;SDS011;56467;53.502;49.248;2023-08-06T02:47:00;9.40;;;5.30;;
69319;SDS011;56467;53.502;49.248;2023-08-06T02:49:26;7.70;;;5.00;;
69319;SDS011;56467;53.502;49.248;2023-08-06T02:51:51;6.95;;;4.68;;
69319;SDS011;56467;53.502;49.248;2023-08-06T02:54:20;7.38;;;5.13;;
69319;SDS011;56467;53.502;49.248;2023-08-06T02:56:46;6.80;;;4.57;;
69319;SDS011;56467;53.502;49.248;2023-08-06T02:59:12;7.55;;;4.90;;
69319;SDS011;56467;53.502;49.248;2023-08-06T03:01:38;7.88;;;4.75;;
69319;SDS011;56467;53.502;49.248;2023-08-06T03:04:04;6.38;;;4.60;;
69319;SDS011;56467;53.502;49.248;2023-08-06T03:06:30;6.20;;;4.57;;
69319;SDS011;56467;53.502;49.248;2023-08-06T03:08:55;8.20;;;5.03;;
69319;SDS011;56467;53.502;49.248;2023-08-06T03:11:21;6.40;;;4.80;;
69319;SDS011;56467;53.502;49.248;2023-08-06T03:13:47;8.55;;;5.13;;
69319;SDS011;56467;53.502;49.248;2023-08-06T03:16:13;6.35;;;4.55;;
69319;SDS011;56467;53.502;49.248;2023-08-06T03:18:39;7.40;;;4.88;;
69319;SDS011;56467;53.502;49.248;2023-08-06T03:21:05;7.07;;;4.63;;
69319;SDS011;56467;53.502;49.248;2023-08-06T03:23:31;7.50;;;4.88;;
69319;SDS011;56467;53.502;49.248;2023-08-06T03:26:00;6.85;;;4.55;;
69319;SDS011;56467;53.502;49.248;2023-08-06T03:28:29;7.22;;;4.80;;
69319;SDS011;56467;53.502;49.248;2023-08-06T03:31:01;8.48;;;4.60;;
69319;SDS011;56467;53.502;49.248;2023-08-06T03:35:53;6.47;;;4.60;;
69319;SDS011;56467;53.502;49.248;2023-08-06T03:38:19;7.53;;;4.80;;
69319;SDS011;56467;53.502;49.248;2023-08-06T03:40:45;6.22;;;4.45;;
69319;SDS011;56467;53.502;49.248;2023-08-06T03:43:11;5.95;;;4.57;;
69319;SDS011;56467;53.502;49.248;2023-08-06T03:45:37;6.38;;;4.43;;
69319;SDS011;56467;53.502;49.248;2023-08-06T03:48:03;6.88;;;4.45;;
69319;SDS011;56467;53.502;49.248;2023-08-06T03:50:29;6.07;;;4.50;;
69319;SDS011;56467;53.502;49.248;2023-08-06T03:52:54;5.95;;;4.50;;
69319;SDS011;56467;53.502;49.248;2023-08-06T03:55:20;5.80;;;4.20;;
69319;SDS011;56467;53.502;49.248;2023-08-06T03:57:46;5.75;;;4.07;;
69319;SDS011;56467;53.502;49.248;2023-08-06T04:00:12;5.85;;;4.20;;
69319;SDS011;56467;53.502;49.248;2023-08-06T04:02:37;5.97;;;4.43;;
69319;SDS011;56467;53.502;49.248;2023-08-06T04:05:03;5.72;;;4.35;;
69319;SDS011;56467;53.502;49.248;2023-08-06T04:07:29;5.88;;;4.28;;
69319;SDS011;56467;53.502;49.248;2023-08-06T04:09:57;5.90;;;4.38;;
69319;SDS011;56467;53.502;49.248;2023-08-06T04:12:24;5.65;;;4.30;;
69319;SDS011;56467;53.502;49.248;2023-08-06T04:14:50;5.50;;;3.88;;
69319;SDS011;56467;53.502;49.248;2023-08-06T04:17:19;6.35;;;4.28;;
69319;SDS011;56467;53.502;49.248;2023-08-06T04:19:46;5.50;;;4.35;;
69319;SDS011;56467;53.502;49.248;2023-08-06T04:22:23;4.88;;;3.83;;
69319;SDS011;56467;53.502;49.248;2023-08-06T04:24:49;5.68;;;3.92;;
69319;SDS011;56467;53.502;49.248;2023-08-06T04:27:15;6.50;;;4.25;;
69319;SDS011;56467;53.502;49.248;2023-08-06T04:29:42;5.40;;;4.20;;
69319;SDS011;56467;53.502;49.248;2023-08-06T04:32:09;5.88;;;4.03;;
69319;SDS011;56467;53.502;49.248;2023-08-06T04:34:35;5.40;;;4.10;;
69319;SDS011;56467;53.502;49.248;2023-08-06T04:37:02;5.07;;;3.92;;
69319;SDS011;56467;53.502;49.248;2023-08-06T04:39:28;5.72;;;4.13;;
69319;SDS011;56467;53.502;49.248;2023-08-06T04:41:55;5.20;;;3.95;;
69319;SDS011;56467;53.502;49.248;2023-08-06T04:44:22;5.47;;;4.25;;
69319;SDS011;56467;53.502;49.248;2023-08-06T04:46:47;6.93;;;3.97;;
69319;SDS011;56467;53.502;49.248;2023-08-06T04:49:13;4.95;;;3.90;;
69319;SDS011;56467;53.502;49.248;2023-08-06T04:51:39;5.30;;;3.75;;
69319;SDS011;56467;53.502;49.248;2023-08-06T04:54:04;5.95;;;3.95;;
69319;SDS011;56467;53.502;49.248;2023-08-06T04:56:30;5.90;;;3.83;;
69319;SDS011;56467;53.502;49.248;2023-08-06T04:58:57;5.15;;;4.10;;
69319;SDS011;56467;53.502;49.248;2023-08-06T05:01:23;5.18;;;3.60;;
69319;SDS011;56467;53.502;49.248;2023-08-06T05:03:49;5.35;;;3.80;;
69319;SDS011;56467;53.502;49.248;2023-08-06T05:06:15;4.57;;;3.63;;
69319;SDS011;56467;53.502;49.248;2023-08-06T05:08:40;5.95;;;3.88;;
69319;SDS011;56467;53.502;49.248;2023-08-06T05:11:06;4.70;;;3.65;;
69319;SDS011;56467;53.502;49.248;2023-08-06T05:13:32;5.25;;;3.83;;
69319;SDS011;56467;53.502;49.248;2023-08-06T05:15:57;5.63;;;4.05;;
69319;SDS011;56467;53.502;49.248;2023-08-06T05:18:23;5.65;;;3.97;;
69319;SDS011;56467;53.502;49.248;2023-08-06T05:20:49;4.53;;;3.50;;
69319;SDS011;56467;53.502;49.248;2023-08-06T05:23:15;4.75;;;3.80;;
69319;SDS011;56467;53.502;49.248;2023-08-06T05:25:41;4.80;;;3.65;;
69319;SDS011;56467;53.502;49.248;2023-08-06T05:28:07;4.57;;;3.60;;
69319;SDS011;56467;53.502;49.248;2023-08-06T05:30:33;5.68;;;3.97;;
69319;SDS011;56467;53.502;49.248;2023-08-06T05:32:58;4.68;;;3.10;;
69319;SDS011;56467;53.502;49.248;2023-08-06T05:35:25;4.53;;;3.47;;
69319;SDS011;56467;53.502;49.248;2023-08-06T05:37:51;4.95;;;3.65;;
69319;SDS011;56467;53.502;49.248;2023-08-06T05:40:16;5.68;;;3.50;;
69319;SDS011;56467;53.502;49.248;2023-08-06T05:42:42;5.03;;;3.50;;
69319;SDS011;56467;53.502;49.248;2023-08-06T05:45:08;4.35;;;3.40;;
69319;SDS011;56467;53.502;49.248;2023-08-06T05:47:35;4.88;;;3.47;;
69319;SDS011;56467;53.502;49.248;2023-08-06T05:50:00;4.72;;;3.78;;
69319;SDS011;56467;53.502;49.248;2023-08-06T05:52:26;4.63;;;3.50;;
69319;SDS011;56467;53.502;49.248;2023-08-06T05:54:51;4.10;;;3.25;;
69319;SDS011;56467;53.502;49.248;2023-08-06T05:57:17;4.05;;;3.30;;
69319;SDS011;56467;53.502;49.248;2023-08-06T05:59:43;5.25;;;3.40;;
69319;SDS011;56467;53.502;49.248;2023-08-06T06:02:09;4.03;;;3.33;;
69319;SDS011;56467;53.502;49.248;2023-08-06T06:04:35;4.20;;;3.38;;
69319;SDS011;56467;53.502;49.248;2023-08-06T06:07:00;4.15;;;3.45;;
69319;SDS011;56467;53.502;49.248;2023-08-06T06:09:26;4.35;;;3.40;;
69319;SDS011;56467;53.502;49.248;2023-08-06T06:11:52;4.07;;;3.30;;
69319;SDS011;56467;53.502;49.248;2023-08-06T06:14:18;4.00;;;3.20;;
69319;SDS011;56467;53.502;49.248;2023-08-06T06:16:44;4.28;;;3.40;;
69319;SDS011;56467;53.502;49.248;2023-08-06T06:19:10;4.20;;;3.30;;
69319;SDS011;56467;53.502;49.248;2023-08-06T06:21:36;3.80;;;3.10;;
69319;SDS011;56467;53.502;49.248;2023-08-06T06:24:03;3.78;;;3.30;;
69319;SDS011;56467;53.502;49.248;2023-08-06T06:26:30;4.07;;;3.40;;
69319;SDS011;56467;53.502;49.248;2023-08-06T06:28:57;3.88;;;3.15;;
69319;SDS011;56467;53.502;49.248;2023-08-06T06:31:23;3.95;;;3.17;;
69319;SDS011;56467;53.502;49.248;2023-08-06T06:33:48;4.00;;;3.17;;
69319;SDS011;56467;53.502;49.248;2023-08-06T06:36:14;4.65;;;3.28;;
69319;SDS011;56467;53.502;49.248;2023-08-06T06:38:40;3.72;;;3.15;;
69319;SDS011;56467;53.502;49.248;2023-08-06T06:41:05;4.35;;;3.38;;
69319;SDS011;56467;53.502;49.248;2023-08-06T06:43:32;3.70;;;2.95;;
69319;SDS011;56467;53.502;49.248;2023-08-06T06:45:58;4.18;;;3.40;;
69319;SDS011;56467;53.502;49.248;2023-08-06T06:48:28;4.47;;;3.47;;
69319;SDS011;56467;53.502;49.248;2023-08-06T06:50:54;4.85;;;3.50;;
69319;SDS011;56467;53.502;49.248;2023-08-06T06:53:21;4.25;;;3.40;;
69319;SDS011;56467;53.502;49.248;2023-08-06T06:55:52;3.85;;;3.40;;
69319;SDS011;56467;53.502;49.248;2023-08-06T06:58:18;4.32;;;3.13;;
69319;SDS011;56467;53.502;49.248;2023-08-06T07:00:45;4.80;;;3.30;;
69319;SDS011;56467;53.502;49.248;2023-08-06T07:03:11;3.58;;;3.10;;
69319;SDS011;56467;53.502;49.248;2023-08-06T07:05:37;3.92;;;2.83;;
69319;SDS011;56467;53.502;49.248;2023-08-06T07:08:03;3.50;;;3.00;;
69319;SDS011;56467;53.502;49.248;2023-08-06T07:10:28;3.65;;;3.03;;
69319;SDS011;56467;53.502;49.248;2023-08-06T07:12:54;3.88;;;2.88;;
69319;SDS011;56467;53.502;49.248;2023-08-06T07:15:20;3.90;;;3.10;;
69319;SDS011;56467;53.502;49.248;2023-08-06T07:17:45;4.20;;;3.20;;
69319;SDS011;56467;53.502;49.248;2023-08-06T07:20:11;3.45;;;2.75;;
69319;SDS011;56467;53.502;49.248;2023-08-06T07:22:37;3.33;;;3.03;;
69319;SDS011;56467;53.502;49.248;2023-08-06T07:25:02;3.67;;;3.05;;
69319;SDS011;56467;53.502;49.248;2023-08-06T07:27:28;3.63;;;2.83;;
69319;SDS011;56467;53.502;49.248;2023-08-06T07:29:54;4.15;;;3.10;;
69319;SDS011;56467;53.502;49.248;2023-08-06T07:32:20;4.15;;;3.10;;
69319;SDS011;56467;53.502;49.248;2023-08-06T07:34:45;3.95;;;3.08;;
69319;SDS011;56467;53.502;49.248;2023-08-06T07:37:11;4.10;;;2.92;;
69319;SDS011;56467;53.502;49.248;2023-08-06T07:39:36;3.30;;;2.67;;
69319;SDS011;56467;53.502;49.248;2023-08-06T07:42:04;3.47;;;3.08;;
69319;SDS011;56467;53.502;49.248;2023-08-06T07:44:32;3.35;;;2.90;;
69319;SDS011;56467;53.502;49.248;2023-08-06T07:46:57;3.50;;;2.95;;
69319;SDS011;56467;53.502;49.248;2023-08-06T07:49:23;3.33;;;3.03;;
69319;SDS011;56467;53.502;49.248;2023-08-06T07:51:49;3.63;;;2.80;;
69319;SDS011;56467;53.502;49.248;2023-08-06T07:54:16;3.55;;;2.90;;
69319;SDS011;56467;53.502;49.248;2023-08-06T07:56:42;3.88;;;3.00;;
69319;SDS011;56467;53.502;49.248;2023-08-06T07:59:08;3.05;;;2.75;;
69319;SDS011;56467;53.502;49.248;2023-08-06T08:01:34;3.47;;;2.80;;
69319;SDS011;56467;53.502;49.248;2023-08-06T08:04:00;3.90;;;2.80;;
69319;SDS011;56467;53.502;49.248;2023-08-06T08:06:25;3.45;;;2.80;;
69319;SDS011;56467;53.502;49.248;2023-08-06T08:08:51;3.50;;;2.92;;
69319;SDS011;56467;53.502;49.248;2023-08-06T08:11:17;3.90;;;2.70;;
69319;SDS011;56467;53.502;49.248;2023-08-06T08:13:43;3.50;;;2.90;;
69319;SDS011;56467;53.502;49.248;2023-08-06T08:16:09;3.75;;;2.78;;
69319;SDS011;56467;53.502;49.248;2023-08-06T08:18:35;2.80;;;2.50;;
69319;SDS011;56467;53.502;49.248;2023-08-06T08:21:01;3.10;;;2.80;;
69319;SDS011;56467;53.502;49.248;2023-08-06T08:23:26;3.80;;;2.60;;
69319;SDS011;56467;53.502;49.248;2023-08-06T08:25:52;3.63;;;3.08;;
69319;SDS011;56467;53.502;49.248;2023-08-06T08:28:18;3.15;;;2.85;;
69319;SDS011;56467;53.502;49.248;2023-08-06T08:30:44;3.35;;;2.90;;
69319;SDS011;56467;53.502;49.248;2023-08-06T08:33:09;3.10;;;2.72;;
69319;SDS011;56467;53.502;49.248;2023-08-06T08:35:35;3.65;;;2.88;;
69319;SDS011;56467;53.502;49.248;2023-08-06T08:38:01;4.78;;;3.00;;
69319;SDS011;56467;53.502;49.248;2023-08-06T08:40:31;6.53;;;3.17;;
69319;SDS011;56467;53.502;49.248;2023-08-06T08:42:58;2.83;;;2.53;;
69319;SDS011;56467;53.502;49.248;2023-08-06T08:45:26;4.00;;;2.63;;
69319;SDS011;56467;53.502;49.248;2023-08-06T08:47:53;3.70;;;3.10;;
69319;SDS011;56467;53.502;49.248;2023-08-06T08:50:19;4.47;;;2.72;;
69319;SDS011;56467;53.502;49.248;2023-08-06T08:52:45;3.95;;;2.80;;
69319;SDS011;56467;53.502;49.248;2023-08-06T08:55:11;3.35;;;2.78;;
69319;SDS011;56467;53.502;49.248;2023-08-06T08:57:39;4.38;;;2.85;;
69319;SDS011;56467;53.502;49.248;2023-08-06T09:00:05;3.30;;;2.60;;
69319;SDS011;56467;53.502;49.248;2023-08-06T09:02:32;3.17;;;2.60;;
69319;SDS011;56467;53.502;49.248;2023-08-06T09:04:59;3.10;;;2.60;;
69319;SDS011;56467;53.502;49.248;2023-08-06T09:07:27;3.05;;;2.70;;
69319;SDS011;56467;53.502;49.248;2023-08-06T09:09:58;6.20;;;2.70;;
69319;SDS011;56467;53.502;49.248;2023-08-06T09:12:26;2.88;;;2.50;;
69319;SDS011;56467;53.502;49.248;2023-08-06T09:14:52;3.28;;;2.72;;
69319;SDS011;56467;53.502;49.248;2023-08-06T09:17:17;3.78;;;2.88;;
69319;SDS011;56467;53.502;49.248;2023-08-06T09:19:46;6.13;;;2.97;;
69319;SDS011;56467;53.502;49.248;2023-08-06T09:22:13;3.58;;;2.80;;
69319;SDS011;56467;53.502;49.248;2023-08-06T09:24:40;4.35;;;2.75;;
69319;SDS011;56467;53.502;49.248;2023-08-06T09:27:13;3.30;;;2.80;;
69319;SDS011;56467;53.502;49.248;2023-08-06T09:32:06;3.13;;;2.50;;
69319;SDS011;56467;53.502;49.248;2023-08-06T09:34:31;3.38;;;2.55;;
69319;SDS011;56467;53.502;49.248;2023-08-06T09:36:57;4.00;;;2.60;;
69319;SDS011;56467;53.502;49.248;2023-08-06T09:39:29;4.30;;;2.80;;
69319;SDS011;56467;53.502;49.248;2023-08-06T09:41:56;2.95;;;2.63;;
69319;SDS011;56467;53.502;49.248;2023-08-06T09:44:27;4.18;;;2.88;;
69319;SDS011;56467;53.502;49.248;2023-08-06T09:46:54;4.57;;;2.72;;
69319;SDS011;56467;53.502;49.248;2023-08-06T09:49:28;3.25;;;2.40;;
69319;SDS011;56467;53.502;49.248;2023-08-06T09:51:57;4.82;;;2.50;;
69319;SDS011;56467;53.502;49.248;2023-08-06T09:54:25;4.65;;;2.70;;
69319;SDS011;56467;53.502;49.248;2023-08-06T09:56:55;4.20;;;2.70;;
69319;SDS011;56467;53.502;49.248;2023-08-06T09:59:22;5.53;;;2.80;;
69319;SDS011;56467;53.502;49.248;2023-08-06T10:01:49;4.43;;;2.60;;
69319;SDS011;56467;53.502;49.248;2023-08-06T10:04:14;4.72;;;2.55;;
69319;SDS011;56467;53.502;49.248;2023-08-06T10:06:41;3.95;;;2.53;;
69319;SDS011;56467;53.502;49.248;2023-08-06T10:09:08;4.50;;;2.70;;
69319;SDS011;56467;53.502;49.248;2023-08-06T10:11:35;4.65;;;2.85;;
69319;SDS011;56467;53.502;49.248;2023-08-06T10:14:05;3.65;;;2.47;;
69319;SDS011;56467;53.502;49.248;2023-08-06T10:16:31;4.28;;;2.65;;
69319;SDS011;56467;53.502;49.248;2023-08-06T10:18:58;4.38;;;2.90;;
69319;SDS011;56467;53.502;49.248;2023-08-06T10:21:24;4.75;;;2.80;;
69319;SDS011;56467;53.502;49.248;2023-08-06T10:23:56;4.55;;;2.65;;
69319;SDS011;56467;53.502;49.248;2023-08-06T10:26:25;4.63;;;2.63;;
69319;SDS011;56467;53.502;49.248;2023-08-06T10:28:54;5.63;;;2.70;;
69319;SDS011;56467;53.502;49.248;2023-08-06T10:31:20;4.72;;;2.53;;
69319;SDS011;56467;53.502;49.248;2023-08-06T10:34:06;5.68;;;2.70;;
69319;SDS011;56467;53.502;49.248;2023-08-06T10:36:32;4.80;;;2.83;;
69319;SDS011;56467;53.502;49.248;2023-08-06T10:38:58;4.70;;;2.90;;
69319;SDS011;56467;53.502;49.248;2023-08-06T10:41:27;5.68;;;2.78;;
69319;SDS011;56467;53.502;49.248;2023-08-06T10:44:15;4.93;;;3.00;;
69319;SDS011;56467;53.502;49.248;2023-08-06T10:46:40;4.60;;;2.72;;
69319;SDS011;56467;53.502;49.248;2023-08-06T10:49:06;7.32;;;2.90;;
69319;SDS011;56467;53.502;49.248;2023-08-06T10:51:32;6.15;;;3.42;;
69319;SDS011;56467;53.502;49.248;2023-08-06T10:53:58;5.43;;;2.72;;
69319;SDS011;56467;53.502;49.248;2023-08-06T10:56:24;5.22;;;2.95;;
69319;SDS011;56467;53.502;49.248;2023-08-06T10:58:54;4.32;;;2.60;;
69319;SDS011;56467;53.502;49.248;2023-08-06T11:01:24;6.38;;;3.03;;
69319;SDS011;56467;53.502;49.248;2023-08-06T11:03:50;7.22;;;3.20;;
69319;SDS011;56467;53.502;49.248;2023-08-06T11:06:18;5.78;;;3.05;;
69319;SDS011;56467;53.502;49.248;2023-08-06T11:08:54;5.40;;;3.30;;
69319;SDS011;56467;53.502;49.248;2023-08-06T11:11:20;6.15;;;4.05;;
69319;SDS011;56467;53.502;49.248;2023-08-06T11:13:48;9.70;;;6.20;;
69319;SDS011;56467;53.502;49.248;2023-08-06T11:16:16;9.02;;;5.80;;
69319;SDS011;56467;53.502;49.248;2023-08-06T11:18:43;8.30;;;5.53;;
69319;SDS011;56467;53.502;49.248;2023-08-06T11:21:10;8.18;;;5.35;;
69319;SDS011;56467;53.502;49.248;2023-08-06T11:23:38;10.48;;;5.78;;
69319;SDS011;56467;53.502;49.248;2023-08-06T11:26:05;8.65;;;4.90;;
69319;SDS011;56467;53.502;49.248;2023-08-06T11:28:30;8.30;;;4.47;;
69319;SDS011;56467;53.502;49.248;2023-08-06T11:30:57;7.18;;;4.93;;
69319;SDS011;56467;53.502;49.248;2023-08-06T11:33:27;8.40;;;4.80;;
69319;SDS011;56467;53.502;49.248;2023-08-06T11:35:57;9.32;;;5.70;;
69319;SDS011;56467;53.502;49.248;2023-08-06T11:38:24;9.02;;;6.15;;
69319;SDS011;56467;53.502;49.248;2023-08-06T11:40:52;9.57;;;6.00;;
69319;SDS011;56467;53.502;49.248;2023-08-06T11:43:21;9.13;;;5.90;;
69319;SDS011;56467;53.502;49.248;2023-08-06T11:45:48;9.63;;;5.57;;
69319;SDS011;56467;53.502;49.248;2023-08-06T11:48:18;12.35;;;5.63;;
69319;SDS011;56467;53.502;49.248;2023-08-06T11:50:44;10.18;;;5.65;;
69319;SDS011;56467;53.502;49.248;2023-08-06T11:53:12;8.63;;;5.45;;
69319;SDS011;56467;53.502;49.248;2023-08-06T11:55:39;9.82;;;4.97;;
69319;SDS011;56467;53.502;49.248;2023-08-06T11:58:05;9.48;;;5.22;;
69319;SDS011;56467;53.502;49.248;2023-08-06T12:00:31;8.27;;;5.22;;
69319;SDS011;56467;53.502;49.248;2023-08-06T12:02:57;12.40;;;5.20;;
69319;SDS011;56467;53.502;49.248;2023-08-06T12:05:23;9.57;;;4.80;;
69319;SDS011;56467;53.502;49.248;2023-08-06T12:07:58;10.43;;;5.20;;
69319;SDS011;56467;53.502;49.248;2023-08-06T12:10:25;8.85;;;4.78;;
69319;SDS011;56467;53.502;49.248;2023-08-06T12:12:53;9.23;;;5.00;;
69319;SDS011;56467;53.502;49.248;2023-08-06T12:15:19;8.00;;;4.82;;
69319;SDS011;56467;53.502;49.248;2023-08-06T12:17:45;7.85;;;4.82;;
69319;SDS011;56467;53.502;49.248;2023-08-06T12:20:11;8.50;;;4.68;;
69319;SDS011;56467;53.502;49.248;2023-08-06T12:22:37;9.40;;;4.60;;
69319;SDS011;56467;53.502;49.248;2023-08-06T12:25:08;7.05;;;4.43;;
69319;SDS011;56467;53.502;49.248;2023-08-06T12:27:40;8.05;;;4.63;;
69319;SDS011;56467;53.502;49.248;2023-08-06T12:30:07;7.15;;;4.10;;
69319;SDS011;56467;53.502;49.248;2023-08-06T12:32:33;9.35;;;4.35;;
69319;SDS011;56467;53.502;49.248;2023-08-06T12:34:59;7.60;;;4.20;;
69319;SDS011;56467;53.502;49.248;2023-08-06T12:37:26;8.23;;;4.50;;
69319;SDS011;56467;53.502;49.248;2023-08-06T12:39:52;9.10;;;4.68;;
69319;SDS011;56467;53.502;49.248;2023-08-06T12:42:18;8.10;;;4.38;;
69319;SDS011;56467;53.502;49.248;2023-08-06T12:44:43;9.52;;;4.13;;
69319;SDS011;56467;53.502;49.248;2023-08-06T12:47:09;15.23;;;8.07;;
69319;SDS011;56467;53.502;49.248;2023-08-06T12:49:35;19.67;;;10.25;;
69319;SDS011;56467;53.502;49.248;2023-08-06T12:52:01;17.38;;;9.70;;
69319;SDS011;56467;53.502;49.248;2023-08-06T12:54:27;16.85;;;9.38;;
69319;SDS011;56467;53.502;49.248;2023-08-06T12:56:53;16.63;;;9.02;;
69319;SDS011;56467;53.502;49.248;2023-08-06T12:59:20;15.90;;;8.55;;
69319;SDS011;56467;53.502;49.248;2023-08-06T13:01:45;13.75;;;7.63;;
69319;SDS011;56467;53.502;49.248;2023-08-06T13:04:11;15.20;;;7.38;;
69319;SDS011;56467;53.502;49.248;2023-08-06T13:06:37;12.57;;;7.30;;
69319;SDS011;56467;53.502;49.248;2023-08-06T13:09:07;13.07;;;6.90;;
69319;SDS011;56467;53.502;49.248;2023-08-06T13:14:04;12.82;;;6.40;;
69319;SDS011;56467;53.502;49.248;2023-08-06T13:16:34;12.57;;;6.93;;
69319;SDS011;56467;53.502;49.248;2023-08-06T13:19:01;12.98;;;6.10;;
69319;SDS011;56467;53.502;49.248;2023-08-06T13:21:31;11.25;;;6.38;;
69319;SDS011;56467;53.502;49.248;2023-08-06T13:24:01;10.32;;;5.88;;
69319;SDS011;56467;53.502;49.248;2023-08-06T13:26:28;10.75;;;5.85;;
69319;SDS011;56467;53.502;49.248;2023-08-06T13:28:54;10.48;;;5.90;;
69319;SDS011;56467;53.502;49.248;2023-08-06T13:31:20;11.45;;;6.00;;
69319;SDS011;56467;53.502;49.248;2023-08-06T13:33:46;11.45;;;5.18;;
69319;SDS011;56467;53.502;49.248;2023-08-06T13:36:13;10.95;;;5.18;;
69319;SDS011;56467;53.502;49.248;2023-08-06T13:38:39;11.38;;;5.30;;
69319;SDS011;56467;53.502;49.248;2023-08-06T13:41:04;9.68;;;5.30;;
69319;SDS011;56467;53.502;49.248;2023-08-06T13:43:31;10.73;;;5.22;;
69319;SDS011;56467;53.502;49.248;2023-08-06T13:45:56;10.00;;;5.28;;
69319;SDS011;56467;53.502;49.248;2023-08-06T13:48:22;9.40;;;4.70;;
69319;SDS011;56467;53.502;49.248;2023-08-06T13:50:48;9.43;;;4.65;;
69319;SDS011;56467;53.502;49.248;2023-08-06T13:53:14;7.10;;;4.57;;
69319;SDS011;56467;53.502;49.248;2023-08-06T13:55:40;7.97;;;4.32;;
69319;SDS011;56467;53.502;49.248;2023-08-06T13:58:05;9.48;;;4.70;;
69319;SDS011;56467;53.502;49.248;2023-08-06T14:00:31;8.60;;;4.60;;
69319;SDS011;56467;53.502;49.248;2023-08-06T14:02:56;8.38;;;4.50;;
69319;SDS011;56467;53.502;49.248;2023-08-06T14:05:22;8.10;;;4.03;;
69319;SDS011;56467;53.502;49.248;2023-08-06T14:07:48;8.25;;;4.10;;
69319;SDS011;56467;53.502;49.248;2023-08-06T14:10:13;10.25;;;3.90;;
69319;SDS011;56467;53.502;49.248;2023-08-06T14:12:39;6.97;;;3.90;;
69319;SDS011;56467;53.502;49.248;2023-08-06T14:15:05;8.00;;;4.00;;
69319;SDS011;56467;53.502;49.248;2023-08-06T14:17:31;6.60;;;3.60;;
69319;SDS011;56467;53.502;49.248;2023-08-06T14:19:57;8.55;;;3.80;;
69319;SDS011;56467;53.502;49.248;2023-08-06T14:22:23;12.80;;;5.97;;
69319;SDS011;56467;53.502;49.248;2023-08-06T14:24:48;12.57;;;6.40;;
69319;SDS011;56467;53.502;49.248;2023-08-06T14:27:14;9.93;;;5.28;;
69319;SDS011;56467;53.502;49.248;2023-08-06T14:29:40;9.27;;;5.00;;
69319;SDS011;56467;53.502;49.248;2023-08-06T14:32:06;10.68;;;4.90;;
69319;SDS011;56467;53.502;49.248;2023-08-06T14:34:32;8.07;;;4.63;;
69319;SDS011;56467;53.502;49.248;2023-08-06T14:36:57;9.18;;;4.70;;
69319;SDS011;56467;53.502;49.248;2023-08-06T14:39:24;7.35;;;4.15;;
69319;SDS011;56467;53.502;49.248;2023-08-06T14:41:50;7.78;;;4.57;;
69319;SDS011;56467;53.502;49.248;2023-08-06T14:44:15;9.20;;;4.43;;
69319;SDS011;56467;53.502;49.248;2023-08-06T14:46:41;7.30;;;4.25;;
69319;SDS011;56467;53.502;49.248;2023-08-06T14:49:07;9.35;;;4.70;;